createdAt,value
2018-09-17T00:01:35.733Z,8.95
2018-09-17T00:04:05.297Z,8.43
2018-09-17T00:06:35.164Z,9.60
2018-09-17T00:09:05.633Z,9.03
2018-09-17T00:11:41.891Z,9.20
2018-09-17T00:14:11.124Z,8.90
2018-09-17T00:16:40.847Z,8.90
2018-09-17T00:19:11.528Z,8.47
2018-09-17T00:21:40.491Z,9.47
2018-09-17T00:24:09.908Z,9.67
2018-09-17T00:26:38.991Z,8.63
2018-09-17T00:29:09.525Z,9.77
2018-09-17T00:31:39.593Z,8.80
2018-09-17T00:34:08.365Z,9.38
2018-09-17T00:36:36.858Z,8.87
2018-09-17T00:39:08.811Z,9.20
2018-09-17T00:41:37.475Z,9.20
2018-09-17T00:44:06.255Z,8.50
2018-09-17T00:46:35.059Z,9.40
2018-09-17T00:49:04.332Z,8.50
2018-09-17T00:51:35.621Z,9.27
2018-09-17T00:54:04.683Z,9.30
2018-09-17T00:56:35.334Z,9.63
2018-09-17T00:59:05.603Z,8.83
2018-09-17T01:01:40.300Z,9.20
2018-09-17T01:04:10.084Z,9.80
2018-09-17T01:06:39.224Z,9.30
2018-09-17T01:12:01.797Z,9.77
2018-09-17T01:14:30.919Z,9.20
2018-09-17T01:17:00.248Z,9.97
2018-09-17T01:19:29.272Z,9.90
2018-09-17T01:21:58.762Z,9.20
2018-09-17T01:24:29.838Z,9.70
2018-09-17T01:27:03.246Z,10.27
2018-09-17T01:29:32.588Z,10.73
2018-09-17T01:32:01.657Z,9.93
2018-09-17T01:34:30.150Z,9.93
2018-09-17T01:36:59.038Z,8.97
2018-09-17T01:39:28.066Z,9.63
2018-09-17T01:41:57.128Z,8.70
2018-09-17T01:44:26.372Z,9.30
2018-09-17T01:46:57.025Z,9.23
2018-09-17T01:49:26.165Z,9.37
2018-09-17T01:51:55.225Z,9.50
2018-09-17T01:54:24.445Z,9.50
2018-09-17T01:56:53.761Z,9.30
2018-09-17T01:59:22.958Z,8.77
2018-09-17T02:01:51.990Z,10.20
2018-09-17T02:04:20.901Z,9.67
2018-09-17T02:06:50.330Z,9.37
2018-09-17T02:09:20.026Z,9.77
2018-09-17T02:11:49.125Z,9.17
2018-09-17T02:17:11.444Z,9.48
2018-09-17T02:19:40.730Z,9.87
2018-09-17T02:22:10.658Z,11.13
2018-09-17T02:24:40.228Z,11.57
2018-09-17T02:27:09.368Z,10.30
2018-09-17T02:29:37.949Z,10.47
2018-09-17T02:32:06.931Z,9.27
2018-09-17T02:34:35.603Z,10.13
2018-09-17T02:37:04.296Z,10.07
2018-09-17T02:39:33.256Z,9.97
2018-09-17T02:42:02.574Z,9.20
2018-09-17T02:44:31.856Z,10.57
2018-09-17T02:47:01.000Z,10.08
2018-09-17T02:49:29.959Z,9.97
2018-09-17T02:51:59.099Z,9.23
2018-09-17T02:54:28.775Z,9.40
2018-09-17T02:56:57.945Z,9.98
2018-09-17T02:59:27.286Z,9.00
2018-09-17T03:01:56.916Z,10.47
2018-09-17T03:04:26.419Z,10.10
2018-09-17T03:06:57.051Z,10.17
2018-09-17T03:09:26.870Z,9.90
2018-09-17T03:11:55.834Z,9.00
2018-09-17T03:14:29.588Z,9.93
2018-09-17T03:17:08.111Z,9.40
2018-09-17T03:19:37.603Z,9.77
2018-09-17T03:22:07.661Z,10.50
2018-09-17T03:24:36.477Z,11.03
2018-09-17T03:27:07.394Z,9.90
2018-09-17T03:29:36.246Z,10.40
2018-09-17T03:32:04.990Z,9.97
2018-09-17T03:34:33.799Z,10.33
2018-09-17T03:37:03.440Z,9.77
2018-09-17T03:39:32.658Z,9.80
2018-09-17T03:42:01.768Z,10.33
2018-09-17T03:44:30.758Z,10.60
2018-09-17T03:47:00.166Z,9.83
2018-09-17T03:49:28.817Z,10.08
2018-09-17T03:51:57.924Z,10.97
2018-09-17T03:54:26.928Z,10.40
2018-09-17T03:56:56.534Z,10.23
2018-09-17T03:59:25.480Z,11.30
2018-09-17T04:01:54.197Z,11.00
2018-09-17T04:04:23.397Z,11.20
2018-09-17T04:06:52.392Z,11.40
2018-09-17T04:09:22.189Z,9.33
2018-09-17T04:11:51.550Z,10.80
2018-09-17T04:14:20.731Z,10.43
2018-09-17T04:16:50.066Z,11.10
2018-09-17T04:19:19.285Z,10.97
2018-09-17T04:21:48.069Z,10.65
2018-09-17T04:24:18.291Z,10.90
2018-09-17T04:26:47.112Z,10.77
2018-09-17T04:29:15.791Z,10.10
2018-09-17T04:31:44.992Z,9.70
2018-09-17T04:34:13.975Z,9.97
2018-09-17T04:36:43.270Z,10.60
2018-09-17T04:39:14.448Z,10.73
2018-09-17T04:41:43.316Z,10.50
2018-09-17T04:44:13.691Z,11.45
2018-09-17T04:46:43.385Z,10.20
2018-09-17T04:49:12.354Z,10.27
2018-09-17T04:51:41.435Z,9.77
2018-09-17T04:54:10.335Z,11.30
2018-09-17T04:56:40.041Z,10.20
2018-09-17T04:59:09.471Z,10.80
2018-09-17T05:01:38.178Z,10.70
2018-09-17T05:04:06.737Z,11.40
2018-09-17T05:06:35.518Z,10.87
2018-09-17T05:09:05.468Z,10.67
2018-09-17T05:11:34.121Z,10.80
2018-09-17T05:14:02.759Z,10.40
2018-09-17T05:16:31.394Z,9.97
2018-09-17T05:19:00.049Z,10.87
2018-09-17T05:21:28.618Z,10.50
2018-09-17T05:23:57.186Z,10.80
2018-09-17T05:26:26.185Z,10.73
2018-09-17T05:28:55.242Z,9.90
2018-09-17T05:31:23.965Z,11.47
2018-09-17T05:33:54.481Z,10.83
2018-09-17T05:36:23.530Z,12.33
2018-09-17T05:38:52.280Z,18.50
2018-09-17T05:41:21.039Z,14.70
2018-09-17T05:43:49.849Z,12.63
2018-09-17T05:46:18.336Z,13.38
2018-09-17T05:48:47.085Z,12.43
2018-09-17T05:51:15.717Z,13.03
2018-09-17T05:53:44.407Z,12.67
2018-09-17T05:56:13.014Z,12.73
2018-09-17T05:58:42.292Z,13.60
2018-09-17T06:01:11.679Z,12.70
2018-09-17T06:03:40.890Z,12.50
2018-09-17T06:06:10.002Z,12.57
2018-09-17T06:08:38.869Z,12.20
2018-09-17T06:11:07.840Z,12.80
2018-09-17T06:13:36.593Z,11.93
2018-09-17T06:16:05.259Z,12.93
2018-09-17T06:18:34.206Z,13.68
2018-09-17T06:21:03.029Z,13.87
2018-09-17T06:23:31.741Z,13.00
2018-09-17T06:26:01.310Z,13.40
2018-09-17T06:28:30.370Z,14.23
2018-09-17T06:30:59.323Z,13.40
2018-09-17T06:33:28.308Z,12.43
2018-09-17T06:35:57.667Z,12.67
2018-09-17T06:38:27.800Z,15.37
2018-09-17T06:40:56.750Z,14.05
2018-09-17T06:46:19.010Z,13.97
2018-09-17T06:48:47.886Z,13.60
2018-09-17T06:51:16.783Z,15.40
2018-09-17T06:53:45.465Z,15.00
2018-09-17T06:56:14.323Z,13.93
2018-09-17T06:58:43.142Z,14.33
2018-09-17T07:01:12.308Z,14.68
2018-09-17T07:03:41.320Z,15.80
2018-09-17T07:06:10.408Z,14.77
2018-09-17T07:08:39.591Z,15.13
2018-09-17T07:11:08.738Z,13.77
2018-09-17T07:13:37.227Z,14.80
2018-09-17T07:16:05.853Z,15.15
2018-09-17T07:18:34.994Z,15.50
2018-09-17T07:21:04.111Z,16.50
2018-09-17T07:23:32.557Z,14.77
2018-09-17T07:26:01.566Z,14.30
2018-09-17T07:28:30.266Z,15.57
2018-09-17T07:31:00.558Z,14.25
2018-09-17T07:33:29.386Z,17.30
2018-09-17T07:35:58.486Z,14.50
2018-09-17T07:38:28.639Z,16.07
2018-09-17T07:40:57.837Z,15.00
2018-09-17T07:43:26.828Z,13.00
2018-09-17T07:45:55.564Z,14.50
2018-09-17T07:48:24.608Z,13.80
2018-09-17T07:50:53.396Z,14.90
2018-09-17T07:53:22.228Z,14.50
2018-09-17T07:55:51.245Z,15.70
2018-09-17T07:58:20.267Z,14.90
2018-09-17T08:00:49.120Z,14.97
2018-09-17T08:03:17.825Z,13.57
2018-09-17T08:05:46.783Z,14.73
2018-09-17T08:08:15.927Z,15.90
2018-09-17T08:10:44.807Z,14.77
2018-09-17T08:13:13.642Z,14.60
2018-09-17T08:15:42.542Z,14.05
2018-09-17T08:18:11.311Z,14.10
2018-09-17T08:20:40.577Z,13.87
2018-09-17T08:23:09.450Z,15.27
2018-09-17T08:25:39.517Z,13.05
2018-09-17T08:28:08.422Z,12.83
2018-09-17T08:30:37.401Z,11.23
2018-09-17T08:33:08.301Z,12.33
2018-09-17T08:35:37.267Z,11.60
2018-09-17T08:38:06.261Z,11.93
2018-09-17T08:40:35.035Z,12.20
2018-09-17T08:43:04.279Z,10.57
2018-09-17T08:45:33.430Z,11.67
2018-09-17T08:48:02.236Z,11.70
2018-09-17T08:50:31.238Z,11.90
2018-09-17T08:53:00.422Z,12.70
2018-09-17T08:55:36.172Z,12.80
2018-09-17T08:58:11.877Z,11.60
2018-09-17T09:00:46.372Z,10.43
2018-09-17T09:03:20.545Z,11.30
2018-09-17T09:05:54.803Z,10.23
2018-09-17T09:08:23.776Z,10.00
2018-09-17T09:10:57.578Z,9.83
2018-09-17T09:13:31.620Z,9.70
2018-09-17T09:16:00.247Z,10.80
2018-09-17T09:18:30.525Z,10.53
2018-09-17T09:20:59.190Z,11.43
2018-09-17T09:23:30.229Z,10.10
2018-09-17T09:25:59.472Z,10.30
2018-09-17T09:28:28.234Z,10.57
2018-09-17T09:30:57.569Z,10.47
2018-09-17T09:33:27.410Z,9.80
2018-09-17T09:35:56.632Z,9.83
2018-09-17T09:38:26.466Z,10.05
2018-09-17T09:40:55.381Z,9.90
2018-09-17T09:43:24.455Z,9.00
2018-09-17T09:45:53.385Z,8.80
2018-09-17T09:48:28.065Z,10.18
2018-09-17T09:50:57.167Z,10.40
2018-09-17T09:53:26.419Z,9.30
2018-09-17T09:55:56.113Z,9.80
2018-09-17T09:58:29.095Z,9.33
2018-09-17T10:01:04.480Z,9.00
2018-09-17T10:03:38.709Z,9.37
2018-09-17T10:06:07.922Z,9.87
2018-09-17T10:08:40.848Z,8.80
2018-09-17T10:11:14.805Z,8.53
2018-09-17T10:13:49.225Z,7.90
2018-09-17T10:16:19.805Z,7.60
2018-09-17T10:18:54.270Z,6.93
2018-09-17T10:21:23.694Z,4.80
2018-09-17T10:23:53.161Z,5.20
2018-09-17T10:26:21.793Z,5.63
2018-09-17T10:28:50.653Z,5.73
2018-09-17T10:31:19.449Z,6.13
2018-09-17T10:33:48.253Z,6.10
2018-09-17T10:36:17.273Z,6.37
2018-09-17T10:38:46.040Z,5.65
2018-09-17T10:41:14.666Z,6.47
2018-09-17T10:43:43.510Z,5.30
2018-09-17T10:46:12.282Z,5.90
2018-09-17T10:48:40.983Z,5.53
2018-09-17T10:51:10.246Z,5.00
2018-09-17T10:53:39.260Z,5.90
2018-09-17T10:56:08.605Z,5.57
2018-09-17T10:58:37.485Z,5.53
2018-09-17T11:01:06.561Z,5.50
2018-09-17T11:03:35.224Z,4.70
2018-09-17T11:06:04.363Z,5.30
2018-09-17T11:08:33.404Z,4.90
2018-09-17T11:11:02.329Z,4.50
2018-09-17T11:13:31.120Z,6.27
2018-09-17T11:15:59.956Z,6.03
2018-09-17T11:18:28.851Z,6.10
2018-09-17T11:20:57.749Z,5.07
2018-09-17T11:23:27.002Z,5.40
2018-09-17T11:25:56.320Z,5.97
2018-09-17T11:28:30.792Z,5.00
2018-09-17T11:35:58.343Z,6.43
2018-09-17T11:38:27.512Z,6.10
2018-09-17T11:40:56.409Z,5.50
2018-09-17T11:43:25.315Z,5.35
2018-09-17T11:45:54.482Z,5.27
2018-09-17T11:48:23.741Z,5.90
2018-09-17T11:50:52.830Z,5.63
2018-09-17T11:53:21.742Z,5.60
2018-09-17T11:55:50.759Z,5.90
2018-09-17T11:58:19.925Z,5.77
2018-09-17T12:00:54.538Z,4.90
2018-09-17T12:03:29.219Z,4.90
2018-09-17T12:05:59.525Z,5.90
2018-09-17T12:08:28.331Z,5.50
2018-09-17T12:10:57.351Z,4.83
2018-09-17T12:13:26.200Z,5.37
2018-09-17T12:15:55.399Z,5.10
2018-09-17T12:18:24.321Z,5.30
2018-09-17T12:20:53.056Z,5.07
2018-09-17T12:23:21.807Z,5.40
2018-09-17T12:25:50.751Z,5.07
2018-09-17T12:28:19.609Z,5.63
2018-09-17T12:30:48.421Z,5.23
2018-09-17T12:33:17.174Z,5.00
2018-09-17T12:35:46.207Z,4.40
2018-09-17T12:38:15.625Z,4.80
2018-09-17T12:40:44.992Z,4.40
2018-09-17T12:43:14.081Z,4.77
2018-09-17T12:45:43.212Z,4.60
2018-09-17T12:48:12.027Z,5.10
2018-09-17T12:50:41.288Z,4.80
2018-09-17T12:53:10.655Z,4.83
2018-09-17T12:55:39.932Z,4.70
2018-09-17T12:58:08.755Z,4.87
2018-09-17T13:00:37.525Z,4.70
2018-09-17T13:03:06.341Z,5.53
2018-09-17T13:05:35.228Z,5.07
2018-09-17T13:08:03.939Z,4.37
2018-09-17T13:10:32.745Z,4.90
2018-09-17T13:13:01.597Z,4.87
2018-09-17T13:15:30.720Z,4.80
2018-09-17T13:17:59.520Z,4.50
2018-09-17T13:20:28.233Z,5.20
2018-09-17T13:22:57.125Z,4.10
2018-09-17T13:25:26.402Z,4.50
2018-09-17T13:27:56.413Z,4.72
2018-09-17T13:30:25.706Z,5.20
2018-09-17T13:32:55.208Z,4.60
2018-09-17T13:35:24.601Z,4.40
2018-09-17T13:37:53.598Z,5.03
2018-09-17T13:40:22.957Z,4.80
2018-09-17T13:42:52.078Z,4.90
2018-09-17T13:45:21.321Z,4.20
2018-09-17T13:47:50.458Z,4.30
2018-09-17T13:50:21.681Z,4.72
2018-09-17T13:52:50.425Z,4.20
2018-09-17T13:55:19.503Z,4.87
2018-09-17T13:57:48.709Z,4.60
2018-09-17T14:00:18.018Z,4.63
2018-09-17T14:02:47.130Z,4.80
2018-09-17T14:05:16.097Z,3.77
2018-09-17T14:07:44.775Z,4.50
2018-09-17T14:10:13.438Z,4.47
2018-09-17T14:12:41.952Z,4.90
2018-09-17T14:15:10.966Z,4.50
2018-09-17T14:17:39.959Z,4.03
2018-09-17T14:20:09.011Z,5.10
2018-09-17T14:22:38.544Z,5.03
2018-09-17T14:25:08.808Z,4.17
2018-09-17T14:27:38.081Z,4.80
2018-09-17T14:30:07.005Z,4.37
2018-09-17T14:32:41.530Z,4.80
2018-09-17T14:35:11.547Z,5.13
2018-09-17T14:37:40.785Z,4.87
2018-09-17T14:40:10.537Z,4.30
2018-09-17T14:42:39.568Z,4.28
2018-09-17T14:45:08.736Z,4.00
2018-09-17T14:47:37.394Z,4.50
2018-09-17T14:50:06.541Z,4.95
2018-09-17T14:52:36.010Z,4.60
2018-09-17T14:55:04.893Z,4.60
2018-09-17T14:57:33.433Z,4.50
2018-09-17T15:00:02.087Z,4.43
2018-09-17T15:02:30.685Z,4.70
2018-09-17T15:04:59.542Z,5.12
2018-09-17T15:07:28.322Z,4.80
2018-09-17T15:09:57.709Z,4.60
2018-09-17T15:12:26.636Z,4.73
2018-09-17T15:14:55.516Z,4.25
2018-09-17T15:17:24.222Z,4.30
2018-09-17T15:19:52.813Z,4.43
2018-09-17T15:22:22.063Z,4.77
2018-09-17T15:24:52.530Z,4.70
2018-09-17T15:27:21.546Z,5.00
2018-09-17T15:29:50.431Z,4.70
2018-09-17T15:32:19.197Z,4.50
2018-09-17T15:34:47.734Z,4.13
2018-09-17T15:37:17.534Z,4.00
2018-09-17T15:39:46.457Z,4.37
2018-09-17T15:42:15.446Z,4.40
2018-09-17T15:44:44.876Z,3.90
2018-09-17T15:47:13.645Z,4.20
2018-09-17T15:49:42.348Z,4.70
2018-09-17T15:52:11.239Z,4.40
2018-09-17T15:54:40.003Z,4.70
2018-09-17T15:57:09.394Z,4.50
2018-09-17T15:59:38.071Z,4.93
2018-09-17T16:02:06.999Z,4.33
2018-09-17T16:04:35.711Z,4.47
2018-09-17T16:07:04.795Z,4.80
2018-09-17T16:09:34.812Z,5.30
2018-09-17T16:12:03.990Z,5.73
2018-09-17T16:14:32.780Z,4.97
2018-09-17T16:17:01.719Z,5.00
2018-09-17T16:19:30.563Z,5.62
2018-09-17T16:36:13.322Z,5.42
2018-09-17T16:41:53.775Z,5.20
2018-09-17T16:53:24.749Z,5.13
2018-09-17T16:55:59.283Z,5.58
2018-09-17T17:05:13.388Z,5.60
2018-09-17T17:13:18.433Z,5.90
2018-09-17T17:16:04.153Z,5.40
2018-09-17T17:18:42.695Z,6.07
2018-09-17T17:21:14.133Z,5.67
2018-09-17T17:24:05.462Z,5.80
2018-09-17T18:05:06.533Z,7.57
2018-09-17T18:07:35.596Z,7.10
2018-09-17T18:10:04.771Z,6.57
2018-09-17T18:12:33.790Z,6.47
2018-09-17T18:15:02.881Z,7.00
2018-09-17T18:17:33.135Z,7.03
2018-09-17T18:20:02.449Z,7.30
2018-09-17T18:22:31.707Z,6.90
2018-09-17T18:25:00.817Z,7.00
2018-09-17T18:27:29.757Z,8.00
2018-09-17T18:29:59.396Z,8.50
2018-09-17T18:32:28.098Z,6.53
2018-09-17T18:34:57.148Z,14.93
2018-09-17T18:37:26.449Z,14.80
2018-09-17T18:39:55.418Z,14.40
2018-09-17T18:42:24.241Z,7.77
2018-09-17T18:44:53.293Z,11.97
2018-09-17T18:47:22.274Z,12.27
2018-09-17T18:49:51.104Z,8.93
2018-09-17T18:52:20.188Z,8.87
2018-09-17T18:54:48.931Z,9.80
2018-09-17T18:57:17.936Z,10.10
2018-09-17T18:59:46.584Z,8.67
2018-09-17T19:02:15.698Z,9.77
2018-09-17T19:04:50.960Z,9.97
2018-09-17T19:07:31.804Z,8.77
2018-09-17T19:10:05.119Z,8.70
2018-09-17T19:12:36.564Z,6.43
2018-09-17T19:15:10.823Z,7.25
2018-09-17T19:17:40.428Z,6.80
2018-09-17T19:20:10.627Z,7.10
2018-09-17T19:22:44.674Z,7.13
2018-09-17T19:25:14.405Z,8.23
2018-09-17T19:27:48.393Z,6.90
2018-09-17T19:30:17.742Z,7.03
2018-09-17T19:32:46.450Z,15.57
2018-09-17T19:35:15.129Z,14.10
2018-09-17T19:37:49.258Z,11.63
2018-09-17T19:40:20.373Z,8.97
2018-09-17T19:42:49.882Z,7.00
2018-09-17T19:45:24.000Z,7.00
2018-09-17T19:47:53.390Z,6.83
2018-09-17T19:50:27.440Z,7.13
2018-09-17T19:52:56.706Z,7.27
2018-09-17T19:55:26.556Z,6.70
2018-09-17T19:58:00.770Z,6.70
2018-09-17T20:00:30.202Z,7.90
2018-09-17T20:02:59.143Z,7.07
2018-09-17T20:05:33.423Z,7.95
2018-09-17T20:08:02.266Z,7.30
2018-09-17T20:10:31.482Z,6.97
2018-09-17T20:13:01.016Z,7.60
2018-09-17T20:15:29.847Z,7.80
2018-09-17T20:17:58.643Z,7.13
2018-09-17T20:20:27.360Z,7.63
2018-09-17T20:22:56.410Z,6.70
2018-09-17T20:25:25.206Z,8.40
2018-09-17T20:27:53.840Z,7.10
2018-09-17T20:30:22.508Z,7.07
2018-09-17T20:32:51.659Z,7.70
2018-09-17T20:40:27.063Z,7.20
2018-09-17T20:42:55.838Z,7.30
2018-09-17T20:45:24.626Z,7.10
2018-09-17T20:47:53.298Z,6.80
2018-09-17T20:50:23.124Z,7.50
2018-09-17T20:52:52.122Z,7.30
2018-09-17T20:55:21.490Z,7.57
2018-09-17T20:57:50.121Z,6.97
2018-09-17T21:00:18.617Z,7.93
2018-09-17T21:02:47.616Z,7.22
2018-09-17T21:05:16.475Z,7.57
2018-09-17T21:07:45.293Z,6.95
2018-09-17T21:10:14.408Z,7.83
2018-09-17T21:12:43.208Z,7.57
2018-09-17T21:15:12.075Z,6.83
2018-09-17T21:17:40.609Z,7.63
2018-09-17T21:20:09.142Z,7.43
2018-09-17T21:22:38.123Z,7.30
2018-09-17T21:25:06.878Z,8.03
2018-09-17T21:27:35.552Z,7.90
2018-09-17T21:30:04.685Z,8.50
2018-09-17T21:32:33.714Z,8.20
2018-09-17T21:35:02.468Z,7.63
2018-09-17T21:37:31.237Z,7.50
2018-09-17T21:42:54.014Z,7.73
2018-09-17T21:45:22.837Z,7.80
2018-09-17T21:47:51.725Z,7.90
2018-09-17T21:50:20.687Z,8.33
2018-09-17T21:52:49.460Z,7.63
2018-09-17T21:55:18.564Z,6.73
2018-09-17T21:57:47.729Z,8.63
2018-09-17T22:00:16.797Z,8.23
2018-09-17T22:02:45.743Z,7.70
2018-09-17T22:05:14.896Z,8.17
2018-09-17T22:07:43.794Z,8.10
2018-09-17T22:10:12.730Z,8.48
2018-09-17T22:12:41.544Z,7.87
2018-09-17T22:15:10.288Z,8.03
2018-09-17T22:17:39.504Z,7.80
2018-09-17T22:20:08.709Z,7.60
2018-09-17T22:22:38.375Z,7.80
2018-09-17T22:25:07.472Z,8.07
2018-09-17T22:27:37.537Z,7.90
2018-09-17T22:30:06.468Z,8.03
2018-09-17T22:32:35.635Z,7.17
2018-09-17T22:35:04.841Z,8.13
2018-09-17T22:37:33.575Z,8.60
2018-09-17T22:40:02.334Z,7.80
2018-09-17T22:42:31.211Z,7.30
2018-09-17T22:45:00.187Z,8.30
2018-09-17T22:47:29.213Z,7.93
2018-09-17T22:49:58.160Z,7.87
2018-09-17T22:54:21.883Z,7.92
2018-09-17T22:56:50.866Z,7.93
2018-09-17T22:59:19.622Z,7.60
2018-09-17T23:01:48.593Z,8.27
2018-09-17T23:04:17.308Z,7.90
2018-09-17T23:06:45.877Z,9.13
2018-09-17T23:09:14.535Z,7.80
2018-09-17T23:11:43.519Z,7.80
2018-09-17T23:14:12.039Z,8.48
2018-09-17T23:16:40.594Z,7.20
2018-09-17T23:19:09.384Z,8.10
2018-09-17T23:21:38.385Z,8.07
2018-09-17T23:24:07.363Z,8.23
2018-09-17T23:26:36.253Z,8.10
2018-09-17T23:29:04.915Z,7.63
2018-09-17T23:31:33.598Z,7.70
2018-09-17T23:34:02.278Z,7.80
2018-09-17T23:36:31.061Z,7.30
2018-09-17T23:39:00.042Z,8.23
2018-09-17T23:41:29.021Z,8.13
2018-09-17T23:43:57.934Z,8.40
2018-09-17T23:46:27.677Z,8.00
2018-09-17T23:48:56.577Z,7.90
2018-09-17T23:51:25.691Z,9.10
2018-09-17T23:53:55.111Z,8.00
2018-09-17T23:56:24.723Z,8.90
2018-09-17T23:58:53.718Z,8.20
